Time;durP1;ratioP1;P1;durP2;ratioP2;P2;SDS_P1;SDS_P2;PMS_P1;PMS_P2;Temp;Humidity;BMP_temperature;BMP_pressure;BME280_temperature;BME280_humidity;BME280_pressure;Samples;Min_cycle;Max_cycle;Signal;HPM_P1;HPM_P2
2023/06/18 00:01:09;;;;;;;16.00;14.33;;;16.70;99.90;;;16.97;79.05;94672.41;5038401;28;20568;-56
2023/06/18 00:03:36;;;;;;;17.93;13.40;;;16.80;99.90;;;16.97;78.81;94669.75;5034895;28;20545;-60
2023/06/18 00:06:03;;;;;;;17.70;13.50;;;16.80;99.90;;;16.97;79.20;94667.09;5035616;28;20479;-55
2023/06/18 00:08:31;;;;;;;18.30;13.77;;;16.80;99.90;;;16.97;78.90;94669.75;5025635;28;20568;-55
2023/06/18 00:10:58;;;;;;;18.63;14.50;;;16.80;99.90;;;16.96;78.80;94674.25;5034421;28;20475;-61
2023/06/18 00:13:26;;;;;;;16.27;14.50;;;16.80;99.90;;;16.97;79.20;94672.41;5030579;28;21683;-55
2023/06/18 00:15:54;;;;;;;15.53;13.20;;;16.70;99.90;;;16.97;79.47;94669.75;5034030;28;20549;-59
2023/06/18 00:18:21;;;;;;;15.47;13.97;;;16.70;99.90;;;16.97;79.47;94665.25;5029843;28;20500;-57
2023/06/18 00:20:49;;;;;;;19.47;14.83;;;16.80;99.90;;;16.98;79.71;94668.75;5029004;28;20512;-55
2023/06/18 00:23:16;;;;;;;19.70;14.77;;;16.80;99.90;;;16.98;79.53;94668.75;5028064;28;20471;-54
2023/06/18 00:25:44;;;;;;;17.87;15.13;;;16.80;99.90;;;16.98;79.09;94671.41;5031049;28;22216;-59
2023/06/18 00:28:11;;;;;;;19.80;15.67;;;16.80;99.90;;;16.98;79.38;94666.09;5037914;28;20638;-60
2023/06/18 00:30:40;;;;;;;20.07;15.37;;;16.80;99.90;;;16.98;79.18;94671.41;5035079;28;20537;-55
2023/06/18 00:33:07;;;;;;;19.23;15.07;;;16.80;99.90;;;16.98;79.16;94676.72;5037905;28;20494;-60
2023/06/18 00:35:34;;;;;;;19.90;14.53;;;16.80;99.90;;;16.97;79.42;94669.75;5038423;28;20506;-55
2023/06/18 00:38:03;;;;;;;17.77;15.90;;;16.80;99.90;;;16.98;79.86;94674.06;5037826;28;20500;-55
2023/06/18 00:40:30;;;;;;;17.17;15.50;;;16.80;99.90;;;16.98;79.83;94676.72;5040273;28;20467;-55
2023/06/18 00:42:57;;;;;;;19.30;16.90;;;16.70;99.90;;;16.99;79.47;94667.72;5042256;28;20514;-56
2023/06/18 00:45:29;;;;;;;18.80;16.70;;;16.80;99.90;;;16.99;79.92;94659.75;5038300;28;20906;-56
2023/06/18 00:47:57;;;;;;;17.50;15.53;;;16.80;99.90;;;16.99;79.51;94668.56;5040976;28;20852;-55
2023/06/18 00:50:26;;;;;;;17.60;15.70;;;16.80;99.90;;;16.99;79.62;94665.06;5039889;28;20476;-59
2023/06/18 00:52:59;;;;;;;25.63;17.23;;;16.80;99.90;;;16.99;79.77;94663.25;5040305;28;20506;-59
2023/06/18 00:55:27;;;;;;;20.90;16.47;;;16.80;99.90;;;16.99;79.56;94665.91;5036940;28;21180;-60
2023/06/18 00:57:59;;;;;;;19.33;16.17;;;16.80;99.90;;;16.99;79.79;94660.59;5041740;28;21096;-59
2023/06/18 01:00:28;;;;;;;20.70;16.93;;;16.80;99.90;;;17.00;79.40;94661.41;5037348;28;20483;-61
2023/06/18 01:02:57;;;;;;;18.80;16.80;;;16.80;99.90;;;17.01;80.06;94665.72;5041156;28;20535;-60
2023/06/18 01:05:24;;;;;;;21.73;17.03;;;16.80;99.90;;;17.01;79.73;94663.88;5037577;28;20468;-60
2023/06/18 01:07:52;;;;;;;20.00;17.07;;;16.80;99.90;;;16.99;79.58;94657.94;5040228;28;20525;-60
2023/06/18 01:10:20;;;;;;;22.23;18.00;;;16.80;99.90;;;17.03;79.70;94663.69;5038767;28;20468;-59
2023/06/18 01:12:49;;;;;;;28.33;19.47;;;16.80;99.90;;;17.01;80.14;94661.22;5039011;28;20545;-59
2023/06/18 01:15:17;;;;;;;22.90;18.37;;;16.80;99.90;;;17.02;79.58;94659.38;5036313;28;21065;-57
2023/06/18 01:17:47;;;;;;;19.50;17.50;;;16.80;99.90;;;17.01;79.86;94669.19;5039319;28;20488;-55
2023/06/18 01:20:17;;;;;;;22.17;18.03;;;16.80;99.90;;;17.02;79.85;94660.22;5042691;28;20534;-55
2023/06/18 01:22:49;;;;;;;19.97;16.47;;;16.80;99.90;;;17.01;80.21;94661.22;5039635;28;20466;-54
2023/06/18 01:25:16;;;;;;;18.87;16.87;;;16.80;99.90;;;17.02;80.20;94657.56;5039853;28;20464;-54
2023/06/18 01:27:45;;;;;;;19.80;16.73;;;16.80;99.90;;;17.03;80.38;94666.34;5041295;28;20464;-62
2023/06/18 01:30:13;;;;;;;18.27;16.30;;;16.80;99.90;;;17.01;79.80;94663.88;5037823;28;20538;-59
2023/06/18 01:32:41;;;;;;;19.80;16.80;;;16.80;99.90;;;17.01;80.25;94663.06;5040900;28;20452;-59
2023/06/18 01:35:14;;;;;;;20.53;16.40;;;16.80;99.90;;;17.02;79.49;94664.69;5034604;28;20472;-60
2023/06/18 01:37:50;;;;;;;17.40;15.53;;;16.80;99.90;;;17.02;79.26;94662.03;5041165;28;20874;-55
2023/06/18 01:40:29;;;;;;;19.87;16.93;;;16.80;99.90;;;17.01;79.62;94665.72;5040401;28;20468;-55
2023/06/18 01:43:01;;;;;;;19.40;16.80;;;16.80;99.90;;;17.01;79.32;94671.84;5039236;28;20476;-54
2023/06/18 01:45:32;;;;;;;19.80;17.20;;;16.80;99.90;;;17.00;80.08;94669.38;5037530;28;20492;-54
2023/06/18 01:48:05;;;;;;;19.43;17.33;;;16.80;99.90;;;16.99;79.78;94667.72;5037786;28;20475;-55
2023/06/18 01:50:35;;;;;;;18.73;16.13;;;16.80;99.90;;;16.99;79.35;94670.38;5039339;28;20472;-59
2023/06/18 01:53:04;;;;;;;20.93;16.37;;;16.80;99.90;;;16.97;79.44;94665.25;5036510;28;20503;-58
2023/06/18 01:55:33;;;;;;;21.70;17.40;;;16.80;99.90;;;17.00;79.49;94672.03;5042893;28;20506;-58
2023/06/18 01:58:00;;;;;;;21.30;17.70;;;16.80;99.90;;;17.00;79.56;94669.38;5039388;28;20583;-59
2023/06/18 02:00:27;;;;;;;19.30;17.27;;;16.80;99.90;;;16.98;79.81;94660.78;5039323;28;20480;-59
2023/06/18 02:02:54;;;;;;;21.60;17.40;;;16.80;99.90;;;16.98;80.04;94671.41;5040901;28;20567;-62
2023/06/18 02:05:22;;;;;;;21.33;17.27;;;16.80;99.90;;;16.97;79.38;94670.56;5037838;28;21009;-56
2023/06/18 02:07:49;;;;;;;21.47;17.30;;;16.80;99.90;;;16.96;79.53;94674.25;5036184;28;20452;-60
2023/06/18 02:10:17;;;;;;;19.80;16.90;;;16.80;99.90;;;16.98;79.57;94679.38;5038408;28;20568;-57
2023/06/18 02:12:45;;;;;;;20.67;16.63;;;16.80;99.90;;;16.99;79.46;94670.38;5038368;28;20467;-55
2023/06/18 02:15:12;;;;;;;23.50;17.83;;;16.80;99.90;;;16.97;79.45;94670.56;5038978;28;20491;-55
2023/06/18 02:17:39;;;;;;;20.10;17.90;;;16.80;99.90;;;16.98;80.08;94676.72;5033091;28;20574;-54
2023/06/18 02:20:09;;;;;;;23.70;18.10;;;16.70;99.90;;;16.97;79.46;94675.88;5038046;28;20840;-55
2023/06/18 02:22:36;;;;;;;20.77;17.40;;;16.80;99.90;;;16.97;79.57;94677.72;5040865;28;20496;-55
2023/06/18 02:25:04;;;;;;;23.43;18.67;;;16.80;99.90;;;16.97;80.22;94680.38;5040514;28;20554;-60
2023/06/18 02:27:32;;;;;;;21.27;17.93;;;16.80;99.90;;;16.99;79.84;94683.66;5036429;28;21013;-56
2023/06/18 02:30:02;;;;;;;22.93;16.97;;;16.80;99.90;;;16.96;80.06;94676.91;5035585;28;21030;-61
2023/06/18 02:32:31;;;;;;;20.20;18.00;;;16.80;99.90;;;16.99;80.14;94679.19;5031803;28;20897;-59
2023/06/18 02:34:58;;;;;;;19.70;17.53;;;16.80;99.90;;;16.99;80.10;94684.50;5034515;28;20529;-60
2023/06/18 02:37:27;;;;;;;22.60;17.67;;;16.80;99.90;;;17.00;79.76;94682.66;5035502;28;20519;-55
2023/06/18 02:39:55;;;;;;;21.03;18.13;;;16.80;99.90;;;17.00;79.67;94690.63;5035439;28;20912;-56
2023/06/18 02:42:23;;;;;;;24.63;18.60;;;16.80;99.90;;;17.01;79.90;94690.44;5035829;28;20990;-61
2023/06/18 02:44:51;;;;;;;20.73;18.30;;;16.80;99.90;;;17.01;79.78;94686.97;5040235;28;20515;-60
2023/06/18 02:47:19;;;;;;;18.90;16.90;;;16.80;99.90;;;17.02;79.89;94683.28;5037199;28;20483;-53
2023/06/18 02:49:46;;;;;;;20.20;18.00;;;16.80;99.90;;;17.03;79.71;94683.09;5036388;28;20463;-54
2023/06/18 02:52:13;;;;;;;21.77;17.57;;;16.80;99.90;;;17.03;79.76;94688.41;5031586;28;20892;-55
2023/06/18 02:54:41;;;;;;;24.30;17.73;;;16.80;99.90;;;17.04;80.00;94691.91;5039070;28;20890;-61
2023/06/18 02:57:09;;;;;;;26.70;17.60;;;16.90;99.90;;;17.05;79.56;94696.22;5039019;28;20881;-60
2023/06/18 02:59:36;;;;;;;19.47;17.40;;;16.80;99.90;;;17.05;79.29;94692.72;5040096;28;20580;-60
2023/06/18 03:02:06;;;;;;;24.53;18.70;;;16.90;99.90;;;17.06;79.89;94700.53;5036493;28;20483;-57
2023/06/18 03:04:34;;;;;;;21.97;18.20;;;16.80;99.90;;;17.07;79.59;94704.84;5033329;28;20487;-55
2023/06/18 03:07:01;;;;;;;28.23;18.40;;;16.90;99.90;;;17.07;79.41;94699.53;5034927;28;20695;-60
2023/06/18 03:09:29;;;;;;;20.60;16.70;;;16.90;99.90;;;17.08;79.77;94697.69;5038164;28;20579;-59
2023/06/18 03:11:56;;;;;;;18.90;16.87;;;16.90;99.90;;;17.08;79.53;94695.84;5036916;28;20916;-59
2023/06/18 03:14:23;;;;;;;18.77;16.87;;;16.90;99.90;;;17.09;79.42;94694.03;5034673;28;20488;-56
2023/06/18 03:16:50;;;;;;;21.53;17.63;;;16.90;99.90;;;17.08;79.43;94697.69;5033483;28;20528;-55
2023/06/18 03:19:19;;;;;;;23.33;18.00;;;16.90;99.90;;;17.10;79.34;94691.19;5033028;28;20499;-60
2023/06/18 03:21:46;;;;;;;24.50;19.67;;;16.90;99.90;;;17.12;79.80;94691.00;5036582;28;20807;-60
2023/06/18 03:24:14;;;;;;;26.70;16.87;;;16.90;99.90;;;17.13;79.91;94695.28;5035517;28;20480;-59
2023/06/18 03:26:43;;;;;;;19.27;17.17;;;16.90;99.90;;;17.13;79.58;94690.78;5036643;28;21012;-60
2023/06/18 03:29:10;;;;;;;22.00;18.97;;;16.90;99.90;;;17.13;79.67;94696.09;5034035;28;20473;-59
2023/06/18 03:31:39;;;;;;;22.57;16.90;;;16.90;99.90;;;17.15;79.82;94699.41;5034348;28;21092;-60
2023/06/18 03:34:07;;;;;;;19.33;17.13;;;16.90;99.90;;;17.16;79.70;94700.22;5040169;28;20468;-59
2023/06/18 03:36:39;;;;;;;21.33;18.00;;;16.90;99.90;;;17.15;79.29;94699.41;5039284;28;21304;-59
2023/06/18 03:39:06;;;;;;;26.97;18.60;;;16.90;99.90;;;17.17;79.92;94694.72;5033674;28;20499;-61
2023/06/18 03:41:34;;;;;;;25.43;16.80;;;16.90;99.90;;;17.19;79.36;94707.84;5038424;28;20552;-53
2023/06/18 03:44:03;;;;;;;21.83;19.33;;;17.00;99.90;;;17.20;79.47;94698.88;5036822;28;20526;-56
2023/06/18 03:46:30;;;;;;;22.50;17.03;;;17.00;99.90;;;17.20;79.60;94702.34;5037923;28;20490;-60
2023/06/18 03:48:58;;;;;;;19.80;17.70;;;17.00;99.90;;;17.22;79.44;94704.00;5036339;28;20494;-60
2023/06/18 03:51:25;;;;;;;23.77;19.67;;;17.00;99.90;;;17.24;79.51;94708.09;5038273;28;20975;-60
2023/06/18 03:53:54;;;;;;;24.73;17.97;;;17.00;99.90;;;17.26;79.50;94705.25;5034938;28;20546;-56
2023/06/18 03:56:22;;;;;;;21.37;18.93;;;17.00;99.90;;;17.26;79.24;94706.09;5037932;28;20552;-60
2023/06/18 03:58:50;;;;;;;19.87;17.57;;;17.00;99.90;;;17.26;79.47;94708.75;5037079;28;21062;-55
2023/06/18 04:01:17;;;;;;;22.70;18.37;;;17.00;99.90;;;17.28;79.75;94700.59;5029972;28;20932;-56
2023/06/18 04:03:45;;;;;;;26.60;18.30;;;17.00;99.90;;;17.30;79.22;94709.19;5030282;28;20483;-57
2023/06/18 04:06:12;;;;;;;24.20;17.73;;;17.10;99.90;;;17.32;79.59;94715.16;5036098;28;20476;-57
2023/06/18 04:08:40;;;;;;;21.53;17.93;;;17.10;99.90;;;17.34;79.10;94713.16;5034208;28;20499;-58
2023/06/18 04:11:08;;;;;;;27.43;19.10;;;17.10;99.90;;;17.36;78.98;94711.13;5036380;28;20494;-54
2023/06/18 04:13:36;;;;;;;22.30;18.10;;;17.10;99.90;;;17.38;79.53;94715.25;5038689;28;20471;-60
2023/06/18 04:16:03;;;;;;;21.90;16.67;;;17.10;99.90;;;17.41;79.40;94707.91;5036432;28;20468;-54
2023/06/18 04:18:30;;;;;;;20.83;18.53;;;17.20;99.90;;;17.42;79.31;94720.19;5038384;28;20496;-59
2023/06/18 04:20:58;;;;;;;25.20;19.77;;;17.20;99.90;;;17.44;79.29;94720.81;5039031;28;20510;-59
2023/06/18 04:23:25;;;;;;;27.13;19.00;;;17.20;99.90;;;17.45;79.03;94719.81;5040869;28;20848;-60
2023/06/18 04:25:52;;;;;;;20.70;18.50;;;17.20;99.90;;;17.46;79.04;94724.97;5038271;28;20481;-53
2023/06/18 04:28:22;;;;;;;23.90;19.80;;;17.30;99.90;;;17.48;79.16;94724.78;5039663;28;20875;-54
2023/06/18 04:30:49;;;;;;;20.33;18.10;;;17.20;99.90;;;17.49;79.25;94721.94;5034688;28;20482;-59
2023/06/18 04:33:17;;;;;;;25.43;17.87;;;17.30;99.90;;;17.55;78.94;94726.50;5039130;28;20526;-59
2023/06/18 04:35:45;;;;;;;19.77;17.47;;;17.30;99.90;;;17.58;79.39;94719.97;5037261;28;20911;-61
2023/06/18 04:38:12;;;;;;;21.67;17.57;;;17.30;99.90;;;17.64;78.79;94726.38;5033555;28;20483;-56
2023/06/18 04:40:39;;;;;;;27.53;17.67;;;17.40;99.90;;;17.67;78.72;94728.66;5035148;28;20488;-61
2023/06/18 04:43:06;;;;;;;20.43;18.23;;;17.40;99.90;;;17.70;79.07;94728.28;5036390;28;20501;-60
2023/06/18 04:45:36;;;;;;;20.23;17.43;;;17.50;99.90;;;17.76;78.83;94726.72;5039676;28;20586;-60
2023/06/18 04:48:04;;;;;;;27.73;19.70;;;17.50;99.90;;;17.81;79.29;94734.97;5034051;28;20477;-60
2023/06/18 04:50:31;;;;;;;22.97;17.70;;;17.60;99.90;;;17.85;79.21;94734.41;5040584;28;20475;-56
2023/06/18 04:52:59;;;;;;;21.23;18.30;;;17.60;99.90;;;17.91;79.00;94735.53;5032532;28;20480;-56
2023/06/18 04:55:27;;;;;;;21.10;18.63;;;17.70;99.90;;;17.97;79.00;94733.94;5034104;28;20480;-56
2023/06/18 04:57:54;;;;;;;20.67;17.93;;;17.70;99.90;;;18.02;78.48;94742.19;5039428;28;20474;-56
2023/06/18 05:00:22;;;;;;;20.43;17.20;;;17.80;99.90;;;18.06;78.07;94748.75;5029730;28;20488;-56
2023/06/18 05:02:50;;;;;;;25.83;18.30;;;17.80;99.90;;;18.10;77.80;94744.72;5034557;28;20525;-60
2023/06/18 05:05:18;;;;;;;19.10;17.20;;;17.90;99.90;;;18.13;78.28;94757.66;5033752;28;20475;-61
2023/06/18 05:07:45;;;;;;;20.57;18.00;;;17.90;99.90;;;18.15;78.04;94758.28;5032990;28;20568;-58
2023/06/18 05:10:12;;;;;;;20.53;17.43;;;17.90;99.90;;;18.18;77.72;94765.88;5041653;28;20478;-58
2023/06/18 05:12:39;;;;;;;19.97;17.80;;;17.90;99.90;;;18.18;78.37;94762.41;5037344;28;20526;-59
2023/06/18 05:15:08;;;;;;;22.00;19.67;;;18.00;99.90;;;18.17;78.46;94766.06;5033525;28;20480;-52
2023/06/18 05:17:35;;;;;;;21.40;17.17;;;17.90;99.90;;;18.20;78.28;94771.88;5033463;28;20598;-60
2023/06/18 05:20:06;;;;;;;19.33;17.33;;;18.00;99.90;;;18.23;77.99;94776.81;5042234;28;20592;-60
2023/06/18 05:22:34;;;;;;;18.90;16.90;;;17.90;99.90;;;18.25;78.58;94773.97;5037166;28;20527;-55
2023/06/18 05:25:01;;;;;;;32.20;18.70;;;18.00;99.90;;;18.26;78.66;94778.25;5034738;28;20494;-59
2023/06/18 05:27:29;;;;;;;24.17;16.50;;;18.00;99.90;;;18.28;78.01;94784.22;5035057;28;20483;-56
2023/06/18 05:29:56;;;;;;;21.17;16.20;;;18.00;99.90;;;18.28;78.22;94785.03;5034127;28;20563;-54
2023/06/18 05:32:23;;;;;;;20.13;17.93;;;18.00;99.90;;;18.29;77.97;94785.84;5036241;28;20467;-57
2023/06/18 05:34:51;;;;;;;20.93;17.67;;;18.00;99.90;;;18.29;78.12;94793.84;5035577;28;20929;-59
2023/06/18 05:37:19;;;;;;;19.63;17.57;;;18.00;99.90;;;18.27;77.92;94794.03;5040015;28;20480;-54
2023/06/18 05:39:46;;;;;;;18.43;16.47;;;18.00;99.90;;;18.27;78.54;94788.72;5039594;28;20502;-56
2023/06/18 05:42:14;;;;;;;19.50;16.60;;;18.00;99.90;;;18.29;78.56;94799.16;5032283;28;20479;-57
2023/06/18 05:44:41;;;;;;;30.90;16.87;;;18.00;99.90;;;18.29;78.75;94799.16;5037969;28;20483;-60
2023/06/18 05:47:08;;;;;;;27.40;19.97;;;18.00;99.90;;;18.30;78.19;94800.00;5032479;28;20518;-60
2023/06/18 05:49:36;;;;;;;24.40;18.77;;;18.00;99.90;;;18.31;78.33;94796.31;5038446;28;20479;-60
2023/06/18 05:52:03;;;;;;;25.27;18.20;;;18.10;99.90;;;18.34;77.78;94803.94;5040718;28;20492;-62
2023/06/18 05:54:32;;;;;;;22.53;16.37;;;18.10;99.90;;;18.35;77.86;94805.59;5036392;28;20509;-56
2023/06/18 05:57:00;;;;;;;20.53;15.47;;;18.10;99.90;;;18.38;78.04;94805.22;5033019;28;20467;-55
2023/06/18 05:59:27;;;;;;;23.97;14.70;;;18.10;99.90;;;18.41;77.56;94810.16;5035505;28;20614;-58
2023/06/18 06:01:54;;;;;;;24.00;17.10;;;18.10;99.90;;;18.43;77.88;94813.44;5038243;28;20695;-55
2023/06/18 06:04:22;;;;;;;17.20;15.50;;;18.20;99.90;;;18.46;78.05;94813.88;5038202;28;21010;-60
2023/06/18 06:06:49;;;;;;;16.70;14.90;;;18.20;99.90;;;18.52;78.01;94816.81;5041130;28;20451;-55
2023/06/18 06:09:16;;;;;;;18.23;15.40;;;18.30;99.90;;;18.57;77.49;94817.88;5037507;28;20859;-61
2023/06/18 06:11:45;;;;;;;15.67;13.97;;;18.30;99.90;;;18.62;77.59;94819.97;5037568;28;20471;-61
2023/06/18 06:14:13;;;;;;;28.20;15.57;;;18.40;99.90;;;18.68;76.75;94821.06;5032287;28;20538;-61
2023/06/18 06:16:40;;;;;;;15.43;13.80;;;18.40;99.90;;;18.70;76.99;94827.84;5032467;28;20578;-60
2023/06/18 06:19:07;;;;;;;19.33;15.10;;;18.40;99.90;;;18.74;77.09;94828.28;5033715;28;20534;-55
2023/06/18 06:21:34;;;;;;;16.27;14.63;;;18.50;99.90;;;18.78;76.99;94835.69;5028379;28;20480;-56
2023/06/18 06:24:02;;;;;;;19.10;14.97;;;18.50;99.90;;;18.82;76.89;94830.81;5034338;28;20529;-56
2023/06/18 06:26:29;;;;;;;26.30;14.10;;;18.60;99.90;;;18.89;76.20;94836.25;5038073;28;20464;-56
2023/06/18 06:28:57;;;;;;;24.43;14.87;;;18.60;99.90;;;18.95;76.01;94844.28;5027587;28;20473;-55
2023/06/18 06:31:25;;;;;;;18.37;14.90;;;18.70;99.90;;;19.00;76.17;94841.03;5039699;28;20465;-61
2023/06/18 06:33:52;;;;;;;21.43;13.80;;;18.70;99.90;;;19.05;75.97;94843.94;5029039;28;20483;-55
2023/06/18 06:36:19;;;;;;;16.03;13.73;;;18.80;99.90;;;19.13;75.88;94850.97;5036073;28;20464;-55
2023/06/18 06:38:47;;;;;;;22.53;14.70;;;18.80;99.90;;;19.19;75.87;94844.88;5032654;28;20471;-55
2023/06/18 06:41:14;;;;;;;17.43;15.60;;;18.90;99.90;;;19.28;75.48;94851.72;5038962;28;20541;-61
2023/06/18 06:43:41;;;;;;;16.70;14.90;;;19.00;99.90;;;19.37;75.51;94844.38;5035926;28;21008;-56
2023/06/18 06:46:10;;;;;;;17.07;15.23;;;19.10;99.90;;;19.46;75.12;94850.41;5035429;28;20546;-62
2023/06/18 06:48:39;;;;;;;16.20;14.53;;;19.10;99.90;;;19.55;74.75;94854.56;5040349;28;20456;-61
2023/06/18 06:51:06;;;;;;;15.33;13.57;;;19.20;99.90;;;19.61;74.11;94853.78;5035901;28;21544;-63
2023/06/18 06:53:33;;;;;;;14.77;12.80;;;19.30;99.90;;;19.67;74.15;94857.50;5038040;28;20529;-61
2023/06/18 06:56:00;;;;;;;16.63;12.93;;;19.40;99.90;;;19.74;74.05;94860.22;5034524;28;20639;-55
2023/06/18 06:58:28;;;;;;;15.50;13.93;;;19.40;99.90;;;19.79;73.85;94858.63;5039084;28;20533;-60
2023/06/18 07:00:55;;;;;;;16.50;13.27;;;19.50;99.90;;;19.87;73.79;94863.78;5036053;28;20503;-56
2023/06/18 07:03:24;;;;;;;15.67;14.03;;;19.60;99.90;;;19.95;73.67;94860.13;5032928;28;20485;-61
2023/06/18 07:05:51;;;;;;;16.37;13.17;;;19.60;99.90;;;20.04;73.40;94869.63;5036133;28;20503;-60
2023/06/18 07:08:18;;;;;;;15.10;13.50;;;19.70;99.90;;;20.15;72.87;94867.41;5034667;28;20475;-62
2023/06/18 07:10:46;;;;;;;15.67;14.07;;;19.80;99.90;;;20.23;72.85;94869.91;5029377;28;20476;-55
2023/06/18 07:13:14;;;;;;;19.33;13.83;;;19.90;99.90;;;20.31;72.49;94875.09;5033098;28;20485;-61
2023/06/18 07:15:41;;;;;;;14.50;12.50;;;20.00;99.90;;;20.34;71.71;94880.03;5036411;28;20483;-60
2023/06/18 07:18:08;;;;;;;14.73;13.30;;;20.00;99.90;;;20.40;71.52;94867.69;5038467;28;21058;-62
2023/06/18 07:20:37;;;;;;;13.83;12.43;;;20.10;99.90;;;20.48;71.49;94869.38;5036941;28;20898;-61
2023/06/18 07:23:04;;;;;;;19.17;12.00;;;20.20;99.90;;;20.60;71.36;94879.28;5039133;28;20909;-54
2023/06/18 07:25:31;;;;;;;16.33;12.20;;;20.30;99.90;;;20.74;70.78;94873.97;5032801;28;20521;-63
2023/06/18 07:27:58;;;;;;;14.77;11.90;;;20.40;99.90;;;20.93;70.19;94885.75;5034427;28;20478;-56
2023/06/18 07:30:25;;;;;;;13.70;11.60;;;20.50;99.90;;;21.09;69.82;94877.31;5036507;28;20482;-56
2023/06/18 07:32:53;;;;;;;14.90;11.90;;;20.70;99.90;;;21.23;69.43;94880.00;5034548;28;20727;-62
2023/06/18 07:35:20;;;;;;;13.53;12.13;;;20.80;99.90;;;21.35;69.16;94875.69;5037076;28;20471;-61
2023/06/18 07:37:50;;;;;;;55.47;14.10;;;21.00;99.90;;;21.45;68.34;94876.06;5033141;28;20995;-57
2023/06/18 07:40:17;;;;;;;11.80;10.60;;;21.10;99.90;;;21.53;68.52;94876.94;5037762;28;20510;-55
2023/06/18 07:42:44;;;;;;;11.60;10.40;;;21.20;99.90;;;21.54;67.22;94871.38;5032737;28;20522;-61
2023/06/18 07:45:12;;;;;;;13.63;12.23;;;21.20;99.90;;;21.53;67.13;94883.09;5036418;28;20479;-60
2023/06/18 07:47:39;;;;;;;14.83;11.90;;;21.20;99.90;;;21.48;67.58;94885.53;5034126;28;20570;-59
2023/06/18 07:50:08;;;;;;;18.63;10.37;;;21.20;99.90;;;21.41;67.85;94887.41;5034471;28;20495;-55
2023/06/18 07:52:36;;;;;;;16.13;11.87;;;21.10;99.90;;;21.35;67.87;94891.75;5036110;28;20461;-58
2023/06/18 07:55:05;;;;;;;15.10;11.90;;;21.00;99.90;;;21.27;67.68;94887.41;5035211;28;20644;-56
2023/06/18 07:57:33;;;;;;;17.03;11.90;;;21.00;99.90;;;21.21;67.79;94890.91;5042233;28;20486;-56
2023/06/18 08:00:00;;;;;;;18.43;11.37;;;20.90;99.90;;;21.15;67.95;94891.75;5037816;28;20495;-55
2023/06/18 08:02:27;;;;;;;12.73;11.40;;;20.90;99.90;;;21.12;67.88;94897.50;5035519;28;20472;-56
2023/06/18 08:04:55;;;;;;;12.07;10.93;;;20.80;99.90;;;21.08;67.60;94898.91;5037571;28;20504;-60
2023/06/18 08:07:22;;;;;;;18.47;13.10;;;20.80;99.90;;;21.03;67.17;94904.88;5040831;28;20836;-56
2023/06/18 08:09:49;;;;;;;19.50;13.03;;;20.80;99.90;;;20.97;68.14;94900.34;5037298;28;21914;-56
2023/06/18 08:12:18;;;;;;;13.33;11.90;;;20.70;99.90;;;20.91;67.92;94910.03;5034057;28;20568;-61
2023/06/18 08:14:46;;;;;;;12.10;10.83;;;20.60;99.90;;;20.86;68.17;94917.81;5039873;28;20480;-56
2023/06/18 08:17:16;;;;;;;13.70;10.50;;;20.60;99.90;;;20.85;68.35;94915.34;5032248;28;20490;-54
2023/06/18 08:19:45;;;;;;;16.30;11.17;;;20.60;99.90;;;20.82;68.49;94921.09;5033813;28;21086;-59
2023/06/18 08:22:12;;;;;;;13.20;11.10;;;20.50;99.90;;;20.77;68.32;94916.34;5036940;28;20517;-56
2023/06/18 08:24:39;;;;;;;18.70;11.53;;;20.50;99.90;;;20.73;68.75;94918.63;5031681;28;20477;-54
2023/06/18 08:27:07;;;;;;;13.30;10.50;;;20.40;99.90;;;20.68;68.38;94921.06;5035234;28;20473;-55
2023/06/18 08:29:36;;;;;;;16.20;10.23;;;20.40;99.90;;;20.65;68.67;94918.81;5035568;28;20872;-57
2023/06/18 08:32:05;;;;;;;22.93;11.67;;;20.40;99.90;;;20.64;68.66;94913.63;5040128;28;20475;-56
2023/06/18 08:34:33;;;;;;;12.63;11.43;;;20.40;99.90;;;20.66;68.97;94925.78;5038197;28;20484;-55
2023/06/18 08:37:00;;;;;;;16.87;10.67;;;20.40;99.90;;;20.69;68.65;94925.38;5041772;28;20980;-54
2023/06/18 08:39:27;;;;;;;12.53;11.33;;;20.40;99.90;;;20.72;68.25;94935.66;5039029;28;20541;-58
2023/06/18 08:41:56;;;;;;;14.80;10.57;;;20.40;99.90;;;20.75;68.60;94945.97;5038139;28;20494;-55
2023/06/18 08:44:25;;;;;;;12.70;11.40;;;20.40;99.90;;;20.81;67.97;94940.84;5037948;28;21201;-56
2023/06/18 08:46:56;;;;;;;12.23;10.93;;;20.50;99.90;;;20.84;68.25;94935.09;5038757;28;20843;-54
2023/06/18 08:49:24;;;;;;;13.53;10.87;;;20.50;99.90;;;20.93;68.24;94937.38;5038242;28;20499;-58
2023/06/18 08:51:51;;;;;;;12.37;11.20;;;20.60;99.90;;;21.04;68.18;94932.47;5034009;28;20541;-56
2023/06/18 08:54:19;;;;;;;12.40;10.33;;;20.70;99.90;;;21.17;68.03;94932.47;5031590;28;20540;-59
2023/06/18 08:56:48;;;;;;;14.70;12.07;;;20.80;99.90;;;21.31;67.31;94927.94;5038306;28;20484;-58
2023/06/18 08:59:15;;;;;;;14.73;11.00;;;20.90;99.90;;;21.44;67.72;94932.47;5031624;28;20853;-59
2023/06/18 09:01:44;;;;;;;11.90;10.60;;;21.00;99.90;;;21.57;67.06;94937.06;5038635;28;20593;-62
2023/06/18 09:04:12;;;;;;;11.00;9.77;;;21.20;99.90;;;21.68;66.72;94936.41;5039907;28;20542;-61
2023/06/18 09:06:40;;;;;;;11.50;10.30;;;21.30;99.90;;;21.77;66.76;94940.53;5033144;28;20467;-63
2023/06/18 09:09:07;;;;;;;13.07;9.70;;;21.40;99.90;;;21.89;66.93;94940.72;5030384;28;21028;-60
2023/06/18 09:11:35;;;;;;;10.67;9.60;;;21.50;99.90;;;21.96;66.38;94940.72;5029443;28;20503;-54
2023/06/18 09:14:02;;;;;;;14.23;10.77;;;21.60;99.90;;;22.01;65.21;94938.22;5039150;28;20832;-59
2023/06/18 09:16:29;;;;;;;29.03;13.37;;;21.60;99.90;;;22.05;65.98;94936.78;5040399;28;20488;-65
2023/06/18 09:18:57;;;;;;;33.27;14.23;;;21.70;99.90;;;22.11;65.91;94937.81;5039223;28;20557;-60
2023/06/18 09:21:38;;;;;;;13.63;9.13;;;21.80;99.90;;;22.13;65.43;94935.72;5038179;28;20580;-56
2023/06/18 09:24:08;;;;;;;16.27;11.00;;;21.80;99.90;;;22.19;64.86;94935.69;5041110;28;20476;-58
2023/06/18 09:26:35;;;;;;;9.57;8.67;;;21.90;99.90;;;22.27;65.24;94939.19;5040348;28;20839;-58
2023/06/18 09:29:06;;;;;;;24.50;10.20;;;21.90;99.90;;;22.37;65.44;94942.28;5034081;28;20534;-61
2023/06/18 09:31:34;;;;;;;16.90;9.20;;;22.00;99.90;;;22.44;64.64;94937.72;5040822;28;20647;-60
2023/06/18 09:34:13;;;;;;;11.03;8.93;;;22.10;99.90;;;22.51;64.29;94935.84;5036550;28;20503;-60
2023/06/18 09:36:42;;;;;;;12.30;9.73;;;22.10;99.90;;;22.62;64.62;94933.50;5034941;28;21047;-60
2023/06/18 09:39:17;;;;;;;15.50;10.00;;;22.30;99.90;;;22.74;64.17;94938.00;5038499;28;20499;-62
2023/06/18 09:41:45;;;;;;;13.67;10.50;;;22.40;99.90;;;22.88;63.98;94938.75;5038026;28;20498;-62
2023/06/18 09:44:14;;;;;;;12.23;9.10;;;22.50;99.90;;;23.00;63.71;94930.81;5040668;28;21266;-62
2023/06/18 09:46:44;;;;;;;8.47;7.77;;;22.60;99.90;;;23.14;62.45;94930.78;5035888;28;21260;-56
2023/06/18 09:49:12;;;;;;;9.90;8.70;;;22.70;99.90;;;23.26;62.61;94929.88;5041168;28;20510;-57
2023/06/18 09:51:41;;;;;;;9.93;8.60;;;22.80;99.90;;;23.34;62.23;94930.66;5035497;28;20513;-55
2023/06/18 09:54:09;;;;;;;15.83;8.53;;;22.90;99.90;;;23.37;62.20;94928.34;5041081;28;20472;-62
2023/06/18 09:56:38;;;;;;;10.23;9.33;;;23.00;99.90;;;23.39;62.45;94934.34;5037795;28;20532;-56
2023/06/18 09:59:05;;;;;;;11.50;8.70;;;23.00;99.90;;;23.43;62.69;94929.34;5036642;28;20521;-56
2023/06/18 10:01:45;;;;;;;11.63;8.47;;;23.10;99.90;;;23.47;62.56;94933.25;5034559;28;20488;-55
2023/06/18 10:04:13;;;;;;;11.47;8.40;;;23.10;99.90;;;23.52;62.51;94936.09;5035995;28;20594;-56
2023/06/18 10:06:42;;;;;;;8.47;7.67;;;23.20;99.90;;;23.56;62.40;94936.47;5037706;28;20461;-57
2023/06/18 10:09:10;;;;;;;8.40;7.60;;;23.20;99.90;;;23.59;62.16;94938.69;5036295;28;20472;-61
2023/06/18 10:11:38;;;;;;;9.00;8.20;;;23.20;99.90;;;23.61;61.56;94936.63;5035097;28;20526;-62